Terminal Aerodrome Forecast
Issued by NWS Caribou, ME

Home | Current Version | Previous Version | Text Only | Print | Product List | Glossary On
Versions: 1 2 3 4 5 6 7 8 9 10 11 12 13 14 15 16 17 18
486
FTUS41 KCAR 211720
TAFCAR
TAF
KCAR 211720Z 2118/2218 22006KT P6SM VCSH OVC025
     FM212200 28008KT P6SM BKN022
     FM212300 29007KT P6SM BKN045
     FM221200 34005KT P6SM SKC=

USA.gov is the U.S. government's official web portal to all federal, state and local government web resources and services.